Flight Track Log - Related Links

Times and Time Zones

All times are in EDT time to prevent confusion due to time zone crossing. See the N58BC flight status page for this flight to view local times or setup timezone preferences in your user account.


Time Position Orientation Groundspeed Altitude Reporting Facility
EDT Latitude Longitude Course Direction KTS MPH feet Rate Location/Type
Wed 07:11:25 AM 37.7639 -97.2067 69° East 130 150 2,400  Level Kansas City Center
Wed 07:12:01 AM 37.7728 -97.1781 72° East 143 165 3,200 1,423 Climbing Kansas City Center
Wed 07:13:02 AM 37.7864 -97.1258 58° Northeast 148 170 4,700 1,465 Climbing Kansas City Center
Wed 07:14:08 AM 37.8106 -97.0767 51° Northeast 159 183 6,300 1,374 Climbing Kansas City Center
Wed 07:15:13 AM 37.8386 -97.0331 59° Northeast 160 184 7,700 1,366 Climbing Kansas City Center
Wed 07:16:11 AM 37.8647 -96.9786 57° Northeast 174 200 9,100 1,475 Climbing Kansas City Center
Wed 07:17:11 AM 37.8886 -96.9319 61° Northeast 169 194 10,600 1,450 Climbing Kansas City Center
Wed 07:18:11 AM 37.9103 -96.8828 56° Northeast 164 189 12,000 1,450 Climbing Kansas City Center
Wed 07:19:11 AM 37.9364 -96.8336 61° Northeast 164 189 13,500 1,500 Climbing Kansas City Center
Wed 07:20:11 AM 37.9583 -96.7842 57° Northeast 164 189 15,000 1,400 Climbing Kansas City Center
Wed 07:21:11 AM 37.9819 -96.7375 59° Northeast 164 189 16,300 1,350 Climbing Kansas City Center
Wed 07:22:11 AM 38.0036 -96.6908 52° Northeast 159 183 17,700 1,200 Climbing Kansas City Center
Wed 07:23:11 AM 38.0294 -96.6494 68° East 153 176 18,700 1,050 Climbing Kansas City Center
Wed 07:24:11 AM 38.0450 -96.5997 62° Northeast 147 169 19,800 1,000 Climbing Kansas City Center
Wed 07:25:23 AM 38.0644 -96.5528 52° Northeast 142 163 20,900 955 Climbing Kansas City Center
Wed 07:26:23 AM 38.1031 -96.4903 61° Northeast 158 182 21,900 900 Climbing Kansas City Center
Wed 07:27:23 AM 38.1269 -96.4356 60° Northeast 170 196 22,700 550 Climbing Kansas City Center
Wed 07:28:23 AM 38.1531 -96.3781 58° Northeast 175 201 23,000 150 Climbing Kansas City Center
Wed 07:29:23 AM 38.1853 -96.3131 58° Northeast 189 217 23,000  Level Kansas City Center
Wed 07:30:23 AM 38.2153 -96.2531 58° Northeast 212 244 23,000  Level Kansas City Center
Wed 07:31:23 AM 38.2519 -96.1772 60° Northeast 217 250 23,000  Level Kansas City Center
Wed 07:32:23 AM 38.2842 -96.1064 58° Northeast 222 255 23,000  Level Kansas City Center
Wed 07:33:35 AM 38.3161 -96.0408 59° Northeast 222 255 23,000  Level Kansas City Center
Wed 07:34:35 AM 38.3569 -95.9544 60° Northeast 227 261 23,000  Level Kansas City Center
Wed 07:35:35 AM 38.3892 -95.8836 58° Northeast 222 255 23,000  Level Kansas City Center
Wed 07:36:35 AM 38.4233 -95.8125 62° Northeast 222 255 23,000  Level Kansas City Center
Wed 07:37:35 AM 38.4489 -95.7519 59° Northeast 217 250 23,000  Level Kansas City Center
Wed 07:38:35 AM 38.4850 -95.6758 59° Northeast 223 257 23,000  Level Kansas City Center
Wed 07:39:35 AM 38.5192 -95.6019 58° Northeast 223 257 23,000  Level Kansas City Center
Wed 07:40:35 AM 38.5531 -95.5333 61° Northeast 223 257 23,000  Level Kansas City Center
Wed 07:41:35 AM 38.5828 -95.4647 60° Northeast 234 269 23,000  Level Kansas City Center
Wed 07:42:35 AM 38.6189 -95.3856 58° Northeast 229 264 23,000  Level Kansas City Center
Wed 07:43:35 AM 38.6506 -95.3194 58° Northeast 229 264 23,000  Level Kansas City Center
Wed 07:44:35 AM 38.6825 -95.2533 59° Northeast 229 264 23,000  Level Kansas City Center
Wed 07:45:35 AM 38.7161 -95.1817 61° Northeast 234 269 23,000  Level Kansas City Center
Wed 07:46:35 AM 38.7519 -95.0997 60° Northeast 234 269 23,000  Level Kansas City Center
Wed 07:47:35 AM 38.7836 -95.0281 59° Northeast 234 269 23,000  Level Kansas City Center
Wed 07:48:35 AM 38.8153 -94.9617 60° Northeast 234 269 23,000  Level Kansas City Center
Wed 07:49:35 AM 38.8508 -94.8819 60° Northeast 234 269 23,000  Level Kansas City Center
Wed 07:50:35 AM 38.8844 -94.8072 60° Northeast 234 269 23,000  Level Kansas City Center
Wed 07:51:35 AM 38.9181 -94.7328 59° Northeast 239 275 23,000  Level Kansas City Center
Wed 07:52:35 AM 38.9494 -94.6661 60° Northeast 233 268 23,000  Level Kansas City Center
Wed 07:53:35 AM 38.9850 -94.5861 60° Northeast 233 268 23,000  Level Kansas City Center
Wed 07:54:35 AM 39.0183 -94.5114 60° Northeast 233 268 23,000  Level Kansas City Center
Wed 07:55:35 AM 39.0475 -94.4472 59° Northeast 233 268 23,000  Level Kansas City Center
Wed 07:56:35 AM 39.0828 -94.3722 60° Northeast 233 268 23,000  Level Kansas City Center
Wed 07:57:35 AM 39.1203 -94.2892 62° Northeast 233 268 23,000  Level Kansas City Center
Wed 07:58:35 AM 39.1533 -94.2089 60° Northeast 233 268 23,000  Level Kansas City Center
Wed 07:59:35 AM 39.1844 -94.1392 60° Northeast 246 283 23,000  Level Kansas City Center
Wed 08:00:35 AM 39.2175 -94.0639 57° Northeast 246 283 23,000  Level Kansas City Center
Wed 08:01:35 AM 39.2589 -93.9806 63° Northeast 246 283 23,000  Level Kansas City Center
Wed 08:02:35 AM 39.2897 -93.9025 59° Northeast 246 283 23,000  Level Kansas City Center
Wed 08:03:35 AM 39.3228 -93.8300 62° Northeast 251 289 23,000  Level Kansas City Center
Wed 08:04:35 AM 39.3536 -93.7544 58° Northeast 245 282 23,000  Level Kansas City Center
Wed 08:05:35 AM 39.3967 -93.6653 60° Northeast 252 290 23,000  Level Kansas City Center
Wed 08:06:35 AM 39.4317 -93.5869 63° Northeast 247 284 23,000  Level Kansas City Center
Wed 08:07:35 AM 39.4603 -93.5142 59° Northeast 247 284 23,000  Level Kansas City Center
Wed 08:08:35 AM 39.4969 -93.4356 62° Northeast 247 284 23,000  Level Kansas City Center
Wed 08:09:35 AM 39.5297 -93.3569 61° Northeast 247 284 23,000  Level Kansas City Center
Wed 08:10:35 AM 39.5642 -93.2756 59° Northeast 247 284 23,000  Level Kansas City Center
Wed 08:11:35 AM 39.5989 -93.1997 61° Northeast 247 284 23,000  Level Kansas City Center
Wed 08:12:35 AM 39.6333 -93.1183 58° Northeast 247 284 23,000  Level Kansas City Center
Wed 08:13:35 AM 39.6700 -93.0419 63° Northeast 247 284 23,000  Level Kansas City Center
Wed 08:14:35 AM 39.7022 -92.9606 63° Northeast 247 284 23,000  Level Kansas City Center
Wed 08:15:35 AM 39.7344 -92.8789 59° Northeast 247 284 23,000  Level Kansas City Center
Wed 08:16:35 AM 39.7708 -92.7997 60° Northeast 247 284 23,000  Level Kansas City Center
Wed 08:17:35 AM 39.8072 -92.7178 64° Northeast 247 284 23,000  Level Kansas City Center
Wed 08:18:35 AM 39.8394 -92.6331 59° Northeast 247 284 23,000  Level Kansas City Center
Wed 08:19:35 AM 39.8756 -92.5539 62° Northeast 247 284 23,000  Level Kansas City Center
Wed 08:20:35 AM 39.9117 -92.4661 61° Northeast 247 284 23,000  Level Kansas City Center
Wed 08:21:35 AM 39.9456 -92.3867 60° Northeast 247 284 23,000  Level Kansas City Center
Wed 08:22:35 AM 39.9817 -92.3044 62° Northeast 247 284 23,000  Level Kansas City Center
Wed 08:23:35 AM 40.0156 -92.2222 62° Northeast 247 284 23,000  Level Kansas City Center
Wed 08:24:35 AM 40.0494 -92.1397 62° Northeast 247 284 23,000  Level Kansas City Center
Wed 08:25:47 AM 40.0831 -92.0572 63° Northeast 247 284 23,000  Level Kansas City Center
Wed 08:26:47 AM 40.1228 -91.9556 61° Northeast 247 284 23,000  Level Kansas City Center
Wed 08:27:47 AM 40.1564 -91.8756 58° Northeast 247 284 23,000  Level Kansas City Center
Wed 08:28:47 AM 40.1961 -91.7925 60° Northeast 254 292 23,000  Level Kansas City Center
Wed 08:29:47 AM 40.2319 -91.7125 59° Northeast 254 292 23,000  Level Kansas City Center
Wed 08:30:47 AM 40.2656 -91.6378 60° Northeast 259 298 23,000  Level Kansas City Center
Wed 08:31:47 AM 40.3011 -91.5572 60° Northeast 259 298 23,000  Level Kansas City Center
Wed 08:32:47 AM 40.3383 -91.4714 59° Northeast 259 298 23,000  Level Kansas City Center
Wed 08:33:47 AM 40.3739 -91.3936 59° Northeast 259 298 23,000  Level Kansas City Center
Wed 08:34:54 AM 40.4203 -91.2917 61° Northeast 268 308 23,000  Level Chicago Center
Wed 08:35:54 AM 40.4508 -91.2189 61° Northeast 263 303 23,000  Level Chicago Center
Wed 08:36:54 AM 40.4897 -91.1272 58° Northeast 263 303 23,000  Level Chicago Center
Wed 08:37:54 AM 40.5264 -91.0489 60° Northeast 258 297 23,000  Level Chicago Center
Wed 08:38:54 AM 40.5631 -90.9653 58° Northeast 258 297 23,000  Level Chicago Center
Wed 08:39:54 AM 40.6017 -90.8842 62° Northeast 253 291 23,000  Level Chicago Center
Wed 08:40:54 AM 40.6339 -90.8028 59° Northeast 253 291 23,000  Level Chicago Center
Wed 08:41:54 AM 40.6706 -90.7214 59° Northeast 253 291 23,000  Level Chicago Center
Wed 08:42:54 AM 40.7069 -90.6400 60° Northeast 253 291 23,000  Level Chicago Center
Wed 08:43:54 AM 40.7411 -90.5611 60° Northeast 248 285 23,000  Level Chicago Center
Wed 08:44:54 AM 40.7775 -90.4794 60° Northeast 248 285 23,000 -50 Level Chicago Center
Wed 08:45:54 AM 40.8136 -90.3981 60° Northeast 248 285 22,900 -550 Descending Chicago Center
Wed 08:46:54 AM 40.8519 -90.3106 63° Northeast 248 285 21,900 -1,000 Descending Chicago Center
Wed 08:47:54 AM 40.8858 -90.2233 59° Northeast 254 292 20,900 -1,300 Descending Chicago Center
Wed 08:48:54 AM 40.9219 -90.1442 61° Northeast 254 292 19,300 -1,550 Descending Chicago Center
Wed 08:49:54 AM 40.9536 -90.0675 63° Northeast 254 292 17,800 -1,350 Descending Chicago Center
Wed 08:50:54 AM 40.9792 -90.0017 56° Northeast 249 287 16,600 -1,550 Descending Chicago Center
Wed 08:51:54 AM 41.0233 -89.9142 62° Northeast 244 281 14,700 -1,650 Descending Chicago Center
Wed 08:52:54 AM 41.0528 -89.8400 61° Northeast 244 281 13,300 -850 Descending Chicago Center
Wed 08:53:54 AM 41.0822 -89.7686 60° Northeast 228 262 13,000 -200 Descending Chicago Center
Wed 08:54:54 AM 41.1139 -89.6944 60° Northeast 222 255 12,900 -50 Descending Chicago Center
Wed 08:55:54 AM 41.1453 -89.6228 62° Northeast 222 255 12,900  Level Chicago Center
Wed 08:56:54 AM 41.1683 -89.5650 61° Northeast 222 255 12,900 -100 Level Chicago Center
Wed 08:57:54 AM 41.2019 -89.4853 55° Northeast 222 255 12,700 -400 Descending Chicago Center
Wed 08:58:54 AM 41.2372 -89.4189 58° Northeast 222 255 12,100 -550 Descending Chicago Center
Wed 08:59:54 AM 41.2708 -89.3472 57° Northeast 222 255 11,600 -455 Descending Chicago Center
Wed 09:01:06 AM 41.3042 -89.2781 60° Northeast 222 255 11,100 -500 Descending Chicago Center
Wed 09:02:06 AM 41.3394 -89.1978 56° Northeast 222 255 10,500 -600 Descending Chicago Center
Wed 09:03:06 AM 41.3706 -89.1369 61° Northeast 205 236 9,900 -550 Descending Chicago Center
Wed 09:04:06 AM 41.3997 -89.0675 57° Northeast 205 236 9,400 -500 Descending Chicago Center
Wed 09:05:06 AM 41.4308 -89.0036 58° Northeast 205 236 8,900 -500 Descending Chicago Center
Wed 09:06:06 AM 41.4617 -88.9369 59° Northeast 205 236 8,400 -500 Descending Chicago Center
Wed 09:07:06 AM 41.4906 -88.8731 58° Northeast 205 236 7,900 -200 Descending Chicago Center
Wed 09:08:06 AM 41.5217 -88.8064 56° Northeast 205 236 8,000 50 Climbing Chicago Center
Wed 09:09:06 AM 41.5525 -88.7450 59° Northeast 205 236 8,000  Level Chicago Center
Wed 09:10:06 AM 41.5814 -88.6808 59° Northeast 205 236 8,000  Level Chicago Center
Wed 09:11:06 AM 41.6103 -88.6167 64° Northeast 205 236 8,000  Level Chicago Center
Wed 09:12:06 AM 41.6347 -88.5497 86° East 205 236 8,000  Level Chicago Center
Wed 09:13:06 AM 41.6383 -88.4719 84° East 200 230 8,000  Level Chicago Center
Wed 09:14:06 AM 41.6442 -88.3942 84° East 200 230 8,000  Level Chicago Center
Wed 09:15:30 AM 41.6517 -88.2994 67° East 205 236 8,000  Level Chicago Center
Wed 09:16:30 AM 41.6778 -88.2183 34° Northeast 196 226 8,000 -500 Level Chicago Center
Wed 09:17:30 AM 41.7211 -88.1786 47° Northeast 189 217 7,000 -1,059 Descending Chicago Center
Wed 09:19:37 AM 41.8000 -88.0667 26° Northeast 180 207 4,700 -1,059 Descending Chicago TRACON
Wed 09:20:37 AM 41.8500 -88.0333 56° Northeast 162 186 3,700 -900 Descending Chicago TRACON
Wed 09:21:37 AM 41.8667 -88.0000 48° Northeast 148 170 2,900 -850 Descending Chicago TRACON
Wed 09:22:37 AM 41.9000 -87.9500 37° Northeast 153 176 2,000 -750 Descending Chicago TRACON
Wed 09:23:37 AM 41.9333 -87.9167 37° Northeast 135 155 1,400 -600 Descending Chicago TRACON

Login

Don't have an account? Register now (free) for customized features, flight alerts, and more!